createdAt,value
2023-08-11T00:00:05.901Z,1.20
2023-08-11T00:03:27.223Z,1.10
2023-08-11T00:06:49.445Z,1.20
2023-08-11T00:10:13.704Z,0.90
2023-08-11T00:13:35.095Z,1.30
2023-08-11T00:16:57.359Z,1.48
2023-08-11T00:20:18.939Z,1.23
2023-08-11T00:23:41.028Z,1.10
2023-08-11T00:27:04.054Z,1.00
2023-08-11T00:30:25.810Z,1.30
2023-08-11T00:33:47.897Z,1.13
2023-08-11T00:37:09.654Z,1.17
2023-08-11T00:40:31.942Z,1.30
2023-08-11T00:43:54.524Z,1.30
2023-08-11T00:47:18.648Z,1.20
2023-08-11T00:50:40.004Z,1.20
2023-08-11T00:54:02.520Z,1.10
2023-08-11T00:57:25.200Z,1.10
2023-08-11T01:00:48.477Z,1.38
2023-08-11T01:04:09.955Z,1.00
2023-08-11T01:07:40.697Z,1.45
2023-08-11T01:11:18.489Z,1.30
2023-08-11T01:14:51.089Z,1.00
2023-08-11T01:18:14.879Z,1.40
2023-08-11T01:21:37.245Z,1.30
2023-08-11T01:25:00.909Z,1.10
2023-08-11T01:28:23.901Z,1.70
2023-08-11T01:31:45.213Z,1.30
2023-08-11T01:35:06.947Z,1.83
2023-08-11T01:38:28.533Z,1.80
2023-08-11T01:41:52.641Z,1.65
2023-08-11T01:45:16.874Z,1.50
2023-08-11T01:48:41.365Z,1.50
2023-08-11T01:52:04.610Z,1.30
2023-08-11T01:55:27.653Z,2.58
2023-08-11T01:58:50.576Z,2.42
2023-08-11T02:02:11.954Z,1.92
2023-08-11T02:05:33.205Z,1.58
2023-08-11T02:08:54.403Z,1.65
2023-08-11T02:12:15.681Z,1.60
2023-08-11T02:15:38.311Z,2.05
2023-08-11T02:19:00.295Z,1.85
2023-08-11T02:22:22.788Z,1.45
2023-08-11T02:25:43.971Z,1.25
2023-08-11T02:29:06.053Z,1.52
2023-08-11T02:32:28.818Z,1.40
2023-08-11T02:35:50.181Z,1.55
2023-08-11T02:39:11.405Z,1.33
2023-08-11T02:42:32.621Z,1.48
2023-08-11T02:45:53.895Z,1.50
2023-08-11T02:49:16.859Z,1.35
2023-08-11T02:52:38.166Z,1.40
2023-08-11T02:56:02.287Z,1.40
2023-08-11T02:59:23.624Z,1.40
2023-08-11T03:02:47.422Z,1.33
2023-08-11T03:06:12.119Z,1.30
2023-08-11T03:09:33.610Z,1.45
2023-08-11T03:12:54.830Z,1.70
2023-08-11T03:16:16.574Z,1.15
2023-08-11T03:19:38.073Z,1.50
2023-08-11T03:23:00.715Z,1.30
2023-08-11T03:26:22.007Z,2.25
2023-08-11T03:29:43.261Z,1.70
2023-08-11T03:33:04.972Z,1.60
2023-08-11T03:36:28.060Z,1.80
2023-08-11T03:39:50.757Z,1.20
2023-08-11T03:43:11.921Z,3.95
2023-08-11T03:46:33.342Z,2.08
2023-08-11T03:49:54.601Z,1.42
2023-08-11T03:53:15.881Z,1.50
2023-08-11T03:56:39.240Z,1.52
2023-08-11T04:00:00.679Z,1.50
2023-08-11T04:03:24.896Z,1.50
2023-08-11T04:06:47.257Z,1.63
2023-08-11T04:10:11.931Z,1.60
2023-08-11T04:13:34.841Z,1.20
2023-08-11T04:16:56.222Z,1.38
2023-08-11T04:20:17.631Z,1.50
2023-08-11T04:23:39.177Z,2.47
2023-08-11T04:27:00.431Z,1.90
2023-08-11T04:30:25.343Z,2.22
2023-08-11T04:33:46.624Z,2.08
2023-08-11T04:37:07.883Z,2.63
2023-08-11T04:40:29.196Z,2.17
2023-08-11T04:43:50.529Z,2.00
2023-08-11T04:47:13.152Z,1.58
2023-08-11T04:50:34.896Z,1.45
2023-08-11T04:54:01.551Z,1.38
2023-08-11T04:57:23.053Z,1.70
2023-08-11T05:00:44.470Z,1.42
2023-08-11T05:04:09.023Z,1.70
2023-08-11T05:07:30.469Z,1.58
2023-08-11T05:10:51.832Z,1.58
2023-08-11T05:14:15.484Z,1.70
2023-08-11T05:17:36.926Z,2.45
2023-08-11T05:21:01.068Z,1.83
2023-08-11T05:24:23.164Z,2.17
2023-08-11T05:27:44.477Z,2.20
2023-08-11T05:31:07.260Z,2.67
2023-08-11T05:34:28.576Z,2.33
2023-08-11T05:37:51.355Z,1.92
2023-08-11T05:41:12.872Z,1.60
2023-08-11T05:44:34.176Z,1.52
2023-08-11T05:47:55.517Z,2.30
2023-08-11T05:51:17.506Z,2.28
2023-08-11T05:54:42.349Z,1.85
2023-08-11T05:58:03.686Z,1.90
2023-08-11T06:01:25.261Z,1.10
2023-08-11T06:04:46.781Z,1.88
2023-08-11T06:08:08.057Z,1.77
2023-08-11T06:11:33.464Z,1.80
2023-08-11T06:14:54.772Z,1.58
2023-08-11T06:18:16.204Z,1.63
2023-08-11T06:21:38.955Z,1.55
2023-08-11T06:25:00.984Z,1.30
2023-08-11T06:28:23.660Z,1.30
2023-08-11T06:31:45.176Z,1.60
2023-08-11T06:35:07.047Z,1.17
2023-08-11T06:38:28.321Z,1.25
2023-08-11T06:41:49.590Z,1.10
2023-08-11T06:45:12.711Z,1.23
2023-08-11T06:48:34.113Z,1.23
2023-08-11T06:51:55.383Z,1.10
2023-08-11T06:55:16.728Z,1.33
2023-08-11T06:58:37.978Z,1.33
2023-08-11T07:02:00.784Z,1.20
2023-08-11T07:05:22.245Z,1.17
2023-08-11T07:08:43.743Z,1.15
2023-08-11T07:12:05.922Z,1.20
2023-08-11T07:15:27.507Z,1.08
2023-08-11T07:18:50.203Z,1.58
2023-08-11T07:22:11.492Z,1.05
2023-08-11T07:25:32.786Z,1.23
2023-08-11T07:28:54.136Z,1.10
2023-08-11T07:32:15.519Z,1.10
2023-08-11T07:35:38.132Z,1.52
2023-08-11T07:39:12.824Z,1.50
2023-08-11T07:42:40.783Z,1.80
2023-08-11T07:46:04.624Z,1.00
2023-08-11T07:49:26.567Z,1.30
2023-08-11T07:52:49.386Z,1.20
2023-08-11T07:56:10.679Z,1.58
2023-08-11T07:59:32.077Z,1.30
2023-08-11T08:02:54.016Z,1.60
2023-08-11T08:06:15.856Z,1.48
2023-08-11T08:09:40.097Z,1.55
2023-08-11T08:13:01.391Z,1.10
2023-08-11T08:16:22.695Z,1.45
2023-08-11T08:19:43.854Z,1.30
2023-08-11T08:23:05.461Z,1.80
2023-08-11T08:26:28.629Z,1.52
2023-08-11T08:29:50.327Z,1.20
2023-08-11T08:33:12.036Z,1.23
2023-08-11T08:36:33.435Z,1.42
2023-08-11T08:39:54.677Z,1.70
2023-08-11T08:43:20.918Z,1.20
2023-08-11T08:46:47.466Z,1.40
2023-08-11T08:50:17.623Z,1.23
2023-08-11T08:53:39.305Z,1.13
2023-08-11T08:57:02.325Z,1.10
2023-08-11T09:00:25.644Z,1.10
2023-08-11T09:03:49.102Z,1.02
2023-08-11T09:07:11.498Z,1.10
2023-08-11T09:10:33.613Z,1.00
2023-08-11T09:13:55.317Z,1.10
2023-08-11T09:17:18.504Z,1.08
2023-08-11T09:20:47.494Z,1.02
2023-08-11T09:24:13.107Z,0.90
2023-08-11T09:27:37.542Z,1.27
2023-08-11T09:30:59.918Z,1.35
2023-08-11T09:34:22.800Z,1.45
2023-08-11T09:37:45.291Z,1.10
2023-08-11T09:41:10.197Z,1.52
2023-08-11T09:44:32.269Z,1.23
2023-08-11T09:47:56.175Z,1.50
2023-08-11T09:51:22.378Z,1.65
2023-08-11T09:54:46.031Z,1.73
2023-08-11T09:58:10.908Z,1.25
2023-08-11T10:01:35.833Z,1.05
2023-08-11T10:05:04.022Z,1.10
2023-08-11T10:08:30.404Z,1.20
2023-08-11T10:11:53.715Z,1.08
2023-08-11T10:15:18.831Z,1.10
2023-08-11T10:18:41.865Z,1.30
2023-08-11T10:22:04.319Z,1.30
2023-08-11T10:25:28.125Z,1.23
2023-08-11T10:28:50.638Z,1.15
2023-08-11T10:32:12.262Z,1.23
2023-08-11T10:35:35.760Z,1.38
2023-08-11T10:39:02.997Z,1.10
2023-08-11T10:42:26.255Z,1.38
2023-08-11T10:45:47.951Z,1.38
2023-08-11T10:49:33.358Z,1.08
2023-08-11T10:53:06.788Z,1.02
2023-08-11T10:56:30.498Z,0.93
2023-08-11T11:00:11.618Z,0.93
2023-08-11T11:03:35.340Z,1.15
2023-08-11T11:07:00.114Z,0.93
2023-08-11T11:10:22.968Z,1.08
2023-08-11T11:13:47.244Z,1.00
2023-08-11T11:17:10.035Z,1.05
2023-08-11T11:20:32.017Z,1.05
2023-08-11T11:23:54.120Z,1.20
2023-08-11T11:27:20.264Z,1.10
2023-08-11T11:30:41.518Z,1.80
2023-08-11T11:34:04.695Z,1.27
2023-08-11T11:37:27.501Z,1.48
2023-08-11T11:40:50.943Z,1.38
2023-08-11T11:44:12.742Z,1.25
2023-08-11T11:47:34.976Z,1.27
2023-08-11T11:51:04.543Z,1.33
2023-08-11T11:54:29.289Z,1.20
2023-08-11T11:57:50.601Z,1.63
2023-08-11T12:01:13.372Z,1.55
2023-08-11T12:04:35.272Z,1.50
2023-08-11T12:07:58.455Z,1.45
2023-08-11T12:11:26.535Z,1.52
2023-08-11T12:14:47.887Z,1.63
2023-08-11T12:18:09.545Z,1.30
2023-08-11T12:21:31.260Z,1.42
2023-08-11T12:24:54.000Z,1.58
2023-08-11T12:28:15.467Z,1.73
2023-08-11T12:31:37.345Z,1.95
2023-08-11T12:34:58.957Z,1.55
2023-08-11T12:38:22.054Z,1.58
2023-08-11T12:41:44.805Z,1.63
2023-08-11T12:45:06.566Z,1.40
2023-08-11T12:48:27.888Z,1.88
2023-08-11T12:51:52.546Z,1.75
2023-08-11T12:55:17.473Z,1.60
2023-08-11T12:58:40.763Z,1.60
2023-08-11T13:02:02.526Z,1.70
2023-08-11T13:05:24.298Z,1.55
2023-08-11T13:08:45.667Z,1.35
2023-08-11T13:12:13.338Z,1.42
2023-08-11T13:15:37.013Z,1.73
2023-08-11T13:18:58.867Z,1.38
2023-08-11T13:22:20.102Z,1.85
2023-08-11T13:25:42.143Z,1.30
2023-08-11T13:29:03.468Z,1.48
2023-08-11T13:32:26.211Z,1.55
2023-08-11T13:35:48.926Z,1.77
2023-08-11T13:39:10.824Z,2.08
2023-08-11T13:42:31.985Z,1.60
2023-08-11T13:45:54.685Z,1.30
2023-08-11T13:49:17.514Z,1.65
2023-08-11T13:52:38.777Z,1.38
2023-08-11T13:56:00.656Z,1.70
2023-08-11T13:59:21.967Z,1.30
2023-08-11T14:02:43.338Z,1.70
2023-08-11T14:06:06.058Z,1.58
2023-08-11T14:09:27.495Z,1.75
2023-08-11T14:12:48.739Z,1.60
2023-08-11T14:16:10.354Z,1.60
2023-08-11T14:19:31.724Z,1.63
2023-08-11T14:22:54.395Z,2.17
2023-08-11T14:26:15.707Z,1.55
2023-08-11T14:29:37.070Z,1.60
2023-08-11T14:32:58.765Z,2.08
2023-08-11T14:36:20.144Z,4.25
2023-08-11T14:39:42.809Z,2.13
2023-08-11T14:43:04.108Z,1.92
2023-08-11T14:46:25.710Z,1.67
2023-08-11T14:49:47.082Z,1.83
2023-08-11T14:53:08.374Z,1.65
2023-08-11T14:56:31.152Z,2.55
2023-08-11T14:59:52.386Z,1.42
2023-08-11T15:03:13.926Z,1.40
2023-08-11T15:06:35.364Z,1.40
2023-08-11T15:09:56.755Z,1.58
2023-08-11T15:13:19.508Z,1.20
2023-08-11T15:16:41.036Z,1.40
2023-08-11T15:20:02.337Z,1.70
2023-08-11T15:23:23.541Z,1.40
2023-08-11T15:26:44.796Z,1.70
2023-08-11T15:30:08.177Z,1.60
2023-08-11T15:33:29.582Z,2.03
2023-08-11T15:36:50.848Z,1.70
2023-08-11T15:40:12.735Z,1.65
2023-08-11T15:43:34.023Z,2.63
2023-08-11T15:46:56.641Z,1.83
2023-08-11T15:50:17.937Z,1.45
2023-08-11T15:53:39.453Z,1.60
2023-08-11T15:57:00.724Z,1.52
2023-08-11T16:00:22.041Z,1.77
2023-08-11T16:03:44.806Z,1.38
2023-08-11T16:07:06.299Z,1.60
2023-08-11T16:10:33.005Z,1.20
2023-08-11T16:13:54.597Z,1.38
2023-08-11T16:17:15.904Z,1.92
2023-08-11T16:20:38.948Z,1.15
2023-08-11T16:24:00.317Z,1.45
2023-08-11T16:27:22.214Z,1.50
2023-08-11T16:30:43.559Z,1.42
2023-08-11T16:34:05.115Z,1.30
2023-08-11T16:37:27.721Z,1.50
2023-08-11T16:40:49.119Z,1.55
2023-08-11T16:44:11.214Z,1.02
2023-08-11T16:47:32.581Z,1.60
2023-08-11T16:50:55.218Z,1.58
2023-08-11T16:54:19.567Z,1.52
2023-08-11T16:57:41.010Z,1.58
2023-08-11T17:01:03.963Z,1.95
2023-08-11T17:04:25.319Z,1.60
2023-08-11T17:07:46.718Z,1.73
2023-08-11T17:11:09.570Z,1.70
2023-08-11T17:14:30.938Z,1.70
2023-08-11T17:17:52.355Z,1.70
2023-08-11T17:21:14.221Z,2.40
2023-08-11T17:24:35.825Z,2.85
2023-08-11T17:27:58.766Z,1.80
2023-08-11T17:31:20.067Z,1.80
2023-08-11T17:34:56.496Z,1.90
2023-08-11T17:38:19.588Z,1.60
2023-08-11T17:41:40.978Z,1.50
2023-08-11T17:45:03.712Z,1.60
2023-08-11T17:48:25.131Z,2.10
2023-08-11T17:51:46.351Z,2.80
2023-08-11T17:55:07.992Z,2.40
2023-08-11T17:58:30.042Z,1.88
2023-08-11T18:01:53.348Z,3.08
2023-08-11T18:05:14.662Z,3.17
2023-08-11T18:08:35.930Z,1.98
2023-08-11T18:11:57.396Z,1.60
2023-08-11T18:15:18.644Z,1.52
2023-08-11T18:18:43.491Z,1.90
2023-08-11T18:22:04.872Z,1.50
2023-08-11T18:25:26.379Z,1.70
2023-08-11T18:28:48.589Z,1.90
2023-08-11T18:32:10.490Z,1.60
2023-08-11T18:35:33.512Z,1.80
2023-08-11T18:38:54.870Z,1.75
2023-08-11T18:42:16.161Z,1.50
2023-08-11T18:45:37.531Z,1.45
2023-08-11T18:48:59.626Z,1.80
2023-08-11T18:52:22.401Z,1.58
2023-08-11T18:55:43.706Z,1.55
2023-08-11T18:59:05.088Z,1.70
2023-08-11T19:02:26.566Z,1.60
2023-08-11T19:05:48.029Z,1.48
2023-08-11T19:09:11.506Z,1.80
2023-08-11T19:12:33.063Z,1.70
2023-08-11T19:15:54.432Z,1.65
2023-08-11T19:19:16.341Z,5.80
2023-08-11T19:22:37.798Z,2.30
2023-08-11T19:26:01.303Z,1.60
2023-08-11T19:29:23.222Z,2.40
2023-08-11T19:32:44.680Z,1.83
2023-08-11T19:36:06.119Z,1.55
2023-08-11T19:39:27.432Z,2.05
2023-08-11T19:42:50.043Z,1.95
2023-08-11T19:46:11.444Z,2.00
2023-08-11T19:49:32.734Z,1.70
2023-08-11T19:52:54.259Z,2.00
2023-08-11T19:56:15.488Z,1.65
2023-08-11T19:59:38.184Z,1.75
2023-08-11T20:02:59.592Z,1.90
2023-08-11T20:06:21.003Z,2.20
2023-08-11T20:09:42.278Z,1.90
2023-08-11T20:13:03.665Z,2.40
2023-08-11T20:16:26.536Z,2.50
2023-08-11T20:19:47.838Z,2.75
2023-08-11T20:23:09.103Z,2.38
2023-08-11T20:26:30.383Z,2.50
2023-08-11T20:29:51.652Z,2.40
2023-08-11T20:33:14.266Z,2.30
2023-08-11T20:36:39.093Z,2.20
2023-08-11T20:40:00.417Z,2.10
2023-08-11T20:43:21.724Z,2.58
2023-08-11T20:46:43.144Z,3.05
2023-08-11T20:50:06.201Z,2.90
2023-08-11T20:53:27.519Z,2.95
2023-08-11T20:56:48.773Z,3.17
2023-08-11T21:00:10.508Z,3.38
2023-08-11T21:03:31.822Z,2.60
2023-08-11T21:06:54.829Z,2.33
2023-08-11T21:10:16.390Z,2.50
2023-08-11T21:13:37.827Z,2.80
2023-08-11T21:17:02.494Z,2.47
2023-08-11T21:20:24.646Z,2.70
2023-08-11T21:23:47.331Z,2.97
2023-08-11T21:27:08.789Z,3.00
2023-08-11T21:30:30.694Z,2.58
2023-08-11T21:33:59.902Z,2.58
2023-08-11T21:37:21.194Z,2.20
2023-08-11T21:40:44.018Z,2.30
2023-08-11T21:44:05.782Z,2.38
2023-08-11T21:47:27.109Z,2.67
2023-08-11T21:50:48.495Z,2.33
2023-08-11T21:54:12.749Z,2.22
2023-08-11T21:57:35.535Z,2.10
2023-08-11T22:00:57.559Z,2.20
2023-08-11T22:04:18.844Z,2.30
2023-08-11T22:07:40.205Z,1.92
2023-08-11T22:11:02.556Z,2.10
2023-08-11T22:14:25.338Z,2.08
2023-08-11T22:17:46.789Z,1.98
2023-08-11T22:21:08.172Z,2.72
2023-08-11T22:24:40.488Z,2.75
2023-08-11T22:28:03.189Z,2.40
2023-08-11T22:31:26.004Z,2.45
2023-08-11T22:34:52.954Z,2.40
2023-08-11T22:38:14.421Z,2.10
2023-08-11T22:41:35.827Z,2.10
2023-08-11T22:44:57.366Z,2.53
2023-08-11T22:48:20.136Z,2.10
2023-08-11T22:51:41.403Z,2.45
2023-08-11T22:55:02.718Z,1.63
2023-08-11T22:58:23.960Z,2.00
2023-08-11T23:01:45.509Z,1.98
2023-08-11T23:05:10.429Z,2.15
2023-08-11T23:08:33.193Z,2.30
2023-08-11T23:11:54.514Z,2.72
2023-08-11T23:15:15.771Z,2.90
2023-08-11T23:18:36.957Z,3.10
2023-08-11T23:21:59.617Z,2.55
2023-08-11T23:25:20.893Z,2.38
2023-08-11T23:28:42.191Z,2.00
2023-08-11T23:32:03.495Z,2.00
2023-08-11T23:35:25.207Z,1.92
2023-08-11T23:38:48.878Z,2.50
2023-08-11T23:42:10.234Z,2.05
2023-08-11T23:45:31.685Z,2.05
2023-08-11T23:48:52.970Z,2.10
2023-08-11T23:52:14.829Z,2.10
2023-08-11T23:55:45.095Z,1.85
2023-08-11T23:59:06.482Z,2.28
